sensor_id;sensor_type;location;lat;lon;timestamp;pressure;altitude;pressure_sealevel;temperature;humidity
29839;BME280;18669;53.356;-1.464;2023-06-10T00:00:18;100792.41;;;13.96;100.00
29839;BME280;18669;53.356;-1.464;2023-06-10T00:03:05;100784.47;;;13.96;100.00
29839;BME280;18669;53.356;-1.464;2023-06-10T00:05:50;100794.06;;;13.98;100.00
29839;BME280;18669;53.356;-1.464;2023-06-10T00:08:35;100790.63;;;13.96;100.00
29839;BME280;18669;53.356;-1.464;2023-06-10T00:11:21;100802.91;;;13.99;100.00
29839;BME280;18669;53.356;-1.464;2023-06-10T00:14:07;100792.25;;;14.00;100.00
29839;BME280;18669;53.356;-1.464;2023-06-10T00:16:52;100787.19;;;13.66;100.00
29839;BME280;18669;53.356;-1.464;2023-06-10T00:19:37;100802.84;;;13.72;100.00
29839;BME280;18669;53.356;-1.464;2023-06-10T00:22:25;100792.81;;;13.55;100.00
29839;BME280;18669;53.356;-1.464;2023-06-10T00:25:14;100796.06;;;13.63;100.00
29839;BME280;18669;53.356;-1.464;2023-06-10T00:27:58;100788.47;;;13.81;100.00
29839;BME280;18669;53.356;-1.464;2023-06-10T00:30:43;100787.19;;;13.66;100.00
29839;BME280;18669;53.356;-1.464;2023-06-10T00:33:28;100787.09;;;13.69;100.00
29839;BME280;18669;53.356;-1.464;2023-06-10T00:36:13;100788.22;;;13.60;100.00
29839;BME280;18669;53.356;-1.464;2023-06-10T00:38:58;100781.91;;;13.66;100.00
29839;BME280;18669;53.356;-1.464;2023-06-10T00:41:43;100780.97;;;13.67;100.00
29839;BME280;18669;53.356;-1.464;2023-06-10T00:44:29;100761.00;;;13.58;100.00
29839;BME280;18669;53.356;-1.464;2023-06-10T00:47:14;100770.59;;;13.31;100.00
29839;BME280;18669;53.356;-1.464;2023-06-10T00:49:59;100758.47;;;13.23;100.00
29839;BME280;18669;53.356;-1.464;2023-06-10T00:52:44;100765.16;;;13.35;100.00
29839;BME280;18669;53.356;-1.464;2023-06-10T00:55:32;100766.78;;;13.39;100.00
29839;BME280;18669;53.356;-1.464;2023-06-10T00:58:17;100767.44;;;13.18;100.00
29839;BME280;18669;53.356;-1.464;2023-06-10T01:01:02;100770.91;;;13.20;100.00
29839;BME280;18669;53.356;-1.464;2023-06-10T01:03:48;100762.91;;;13.21;100.00
29839;BME280;18669;53.356;-1.464;2023-06-10T01:06:48;100756.31;;;13.06;100.00
29839;BME280;18669;53.356;-1.464;2023-06-10T01:15:22;100764.13;;;12.78;100.00
29839;BME280;18669;53.356;-1.464;2023-06-10T01:18:08;100757.47;;;12.96;100.00
29839;BME280;18669;53.356;-1.464;2023-06-10T01:20:54;100757.22;;;13.05;100.00
29839;BME280;18669;53.356;-1.464;2023-06-10T01:23:39;100746.72;;;13.04;100.00
29839;BME280;18669;53.356;-1.464;2023-06-10T01:26:34;100749.63;;;13.24;100.00
29839;BME280;18669;53.356;-1.464;2023-06-10T01:32:17;100737.69;;;13.11;100.00
29839;BME280;18669;53.356;-1.464;2023-06-10T01:35:05;100744.97;;;13.03;100.00
29839;BME280;18669;53.356;-1.464;2023-06-10T01:37:54;100744.97;;;13.03;100.00
29839;BME280;18669;53.356;-1.464;2023-06-10T01:40:41;100745.81;;;13.05;100.00
29839;BME280;18669;53.356;-1.464;2023-06-10T01:43:27;100739.47;;;13.10;100.00
29839;BME280;18669;53.356;-1.464;2023-06-10T01:46:11;100738.50;;;13.13;100.00
29839;BME280;18669;53.356;-1.464;2023-06-10T01:48:56;100736.31;;;12.97;100.00
29839;BME280;18669;53.356;-1.464;2023-06-10T01:51:41;100735.44;;;12.97;100.00
29839;BME280;18669;53.356;-1.464;2023-06-10T01:54:26;100733.84;;;12.91;100.00
29839;BME280;18669;53.356;-1.464;2023-06-10T01:57:11;100732.28;;;12.86;100.00
29839;BME280;18669;53.356;-1.464;2023-06-10T01:59:56;100736.59;;;12.88;100.00
29839;BME280;18669;53.356;-1.464;2023-06-10T02:02:40;100730.34;;;12.91;100.00
29839;BME280;18669;53.356;-1.464;2023-06-10T02:05:25;100727.84;;;12.86;100.00
29839;BME280;18669;53.356;-1.464;2023-06-10T02:08:10;100727.69;;;12.91;100.00
29839;BME280;18669;53.356;-1.464;2023-06-10T02:10:55;100729.41;;;12.93;100.00
29839;BME280;18669;53.356;-1.464;2023-06-10T02:13:40;100724.91;;;12.65;100.00
29839;BME280;18669;53.356;-1.464;2023-06-10T02:16:25;100723.34;;;12.58;100.00
29839;BME280;18669;53.356;-1.464;2023-06-10T02:19:11;100728.44;;;12.64;100.00
29839;BME280;18669;53.356;-1.464;2023-06-10T02:21:57;100736.22;;;12.71;100.00
29839;BME280;18669;53.356;-1.464;2023-06-10T02:24:41;100724.84;;;12.67;100.00
29839;BME280;18669;53.356;-1.464;2023-06-10T02:27:26;100725.53;;;12.74;100.00
29839;BME280;18669;53.356;-1.464;2023-06-10T02:30:12;100724.44;;;12.82;100.00
29839;BME280;18669;53.356;-1.464;2023-06-10T02:32:57;100724.84;;;12.67;100.00
29839;BME280;18669;53.356;-1.464;2023-06-10T02:35:43;100730.00;;;12.72;100.00
29839;BME280;18669;53.356;-1.464;2023-06-10T02:38:28;100714.53;;;12.58;100.00
29839;BME280;18669;53.356;-1.464;2023-06-10T02:41:13;100720.38;;;12.71;100.00
29839;BME280;18669;53.356;-1.464;2023-06-10T02:43:58;100724.47;;;12.49;100.00
29839;BME280;18669;53.356;-1.464;2023-06-10T02:46:42;100726.72;;;12.30;100.00
29839;BME280;18669;53.356;-1.464;2023-06-10T02:49:27;100711.34;;;12.46;100.00
29839;BME280;18669;53.356;-1.464;2023-06-10T02:52:12;100716.47;;;12.52;100.00
29839;BME280;18669;53.356;-1.464;2023-06-10T02:54:57;100714.00;;;12.45;100.00
29839;BME280;18669;53.356;-1.464;2023-06-10T02:57:42;100717.09;;;12.28;100.00
29839;BME280;18669;53.356;-1.464;2023-06-10T03:00:27;100707.75;;;12.16;100.00
29839;BME280;18669;53.356;-1.464;2023-06-10T03:03:12;100715.63;;;12.17;100.00
29839;BME280;18669;53.356;-1.464;2023-06-10T03:05:57;100714.16;;;12.38;100.00
29839;BME280;18669;53.356;-1.464;2023-06-10T03:08:43;100718.06;;;12.58;100.00
29839;BME280;18669;53.356;-1.464;2023-06-10T03:11:30;100714.69;;;12.53;100.00
29839;BME280;18669;53.356;-1.464;2023-06-10T03:14:14;100709.41;;;12.53;100.00
29839;BME280;18669;53.356;-1.464;2023-06-10T03:16:59;100710.44;;;12.47;100.00
29839;BME280;18669;53.356;-1.464;2023-06-10T03:19:44;100704.88;;;12.25;100.00
29839;BME280;18669;53.356;-1.464;2023-06-10T03:22:29;100699.53;;;12.27;100.00
29839;BME280;18669;53.356;-1.464;2023-06-10T03:25:14;100706.47;;;12.31;100.00
29839;BME280;18669;53.356;-1.464;2023-06-10T03:27:59;100701.88;;;12.39;100.00
29839;BME280;18669;53.356;-1.464;2023-06-10T03:30:44;100706.97;;;12.45;100.00
29839;BME280;18669;53.356;-1.464;2023-06-10T03:33:29;100697.44;;;12.39;100.00
29839;BME280;18669;53.356;-1.464;2023-06-10T03:36:14;100697.03;;;12.22;100.00
29839;BME280;18669;53.356;-1.464;2023-06-10T03:38:59;100698.84;;;12.20;100.00
29839;BME280;18669;53.356;-1.464;2023-06-10T03:41:44;100702.84;;;12.35;100.00
29839;BME280;18669;53.356;-1.464;2023-06-10T03:44:29;100700.25;;;12.33;100.00
29839;BME280;18669;53.356;-1.464;2023-06-10T03:47:14;100708.75;;;12.45;100.00
29839;BME280;18669;53.356;-1.464;2023-06-10T03:49:59;100714.06;;;12.43;100.00
29839;BME280;18669;53.356;-1.464;2023-06-10T03:52:44;100716.78;;;12.40;100.00
29839;BME280;18669;53.356;-1.464;2023-06-10T03:55:29;100711.28;;;12.49;100.00
29839;BME280;18669;53.356;-1.464;2023-06-10T03:58:15;100709.19;;;12.61;100.00
29839;BME280;18669;53.356;-1.464;2023-06-10T04:01:02;100699.25;;;12.71;100.00
29839;BME280;18669;53.356;-1.464;2023-06-10T04:03:47;100692.50;;;12.60;100.00
29839;BME280;18669;53.356;-1.464;2023-06-10T04:06:33;100691.44;;;12.66;100.00
29839;BME280;18669;53.356;-1.464;2023-06-10T04:09:18;100693.19;;;12.67;100.00
29839;BME280;18669;53.356;-1.464;2023-06-10T04:12:03;100692.03;;;12.76;100.00
29839;BME280;18669;53.356;-1.464;2023-06-10T04:14:50;100689.78;;;12.93;100.00
29839;BME280;18669;53.356;-1.464;2023-06-10T04:17:36;100693.84;;;12.74;100.00
29839;BME280;18669;53.356;-1.464;2023-06-10T04:20:20;100689.38;;;12.77;100.00
29839;BME280;18669;53.356;-1.464;2023-06-10T04:23:06;100683.84;;;12.55;100.00
29839;BME280;18669;53.356;-1.464;2023-06-10T04:25:51;100697.50;;;12.38;100.00
29839;BME280;18669;53.356;-1.464;2023-06-10T04:28:35;100693.03;;;12.40;100.00
29839;BME280;18669;53.356;-1.464;2023-06-10T04:31:20;100692.59;;;12.56;100.00
29839;BME280;18669;53.356;-1.464;2023-06-10T04:34:06;100697.78;;;12.60;100.00
29839;BME280;18669;53.356;-1.464;2023-06-10T04:36:52;100700.44;;;12.59;100.00
29839;BME280;18669;53.356;-1.464;2023-06-10T04:39:37;100686.31;;;12.61;100.00
29839;BME280;18669;53.356;-1.464;2023-06-10T04:42:22;100686.31;;;12.61;100.00
29839;BME280;18669;53.356;-1.464;2023-06-10T04:45:07;100687.66;;;12.75;100.00
29839;BME280;18669;53.356;-1.464;2023-06-10T04:47:52;100686.66;;;12.80;100.00
29839;BME280;18669;53.356;-1.464;2023-06-10T04:50:40;100690.88;;;12.86;100.00
29839;BME280;18669;53.356;-1.464;2023-06-10T04:53:24;100690.22;;;12.78;100.00
29839;BME280;18669;53.356;-1.464;2023-06-10T04:56:09;100698.84;;;12.53;100.00
29839;BME280;18669;53.356;-1.464;2023-06-10T04:58:54;100689.09;;;12.55;100.00
29839;BME280;18669;53.356;-1.464;2023-06-10T05:01:39;100681.97;;;12.27;100.00
29839;BME280;18669;53.356;-1.464;2023-06-10T05:04:24;100676.97;;;12.16;100.00
29839;BME280;18669;53.356;-1.464;2023-06-10T05:07:09;100680.25;;;12.24;100.00
29839;BME280;18669;53.356;-1.464;2023-06-10T05:09:54;100683.78;;;12.25;100.00
29839;BME280;18669;53.356;-1.464;2023-06-10T05:12:40;100684.38;;;12.35;100.00
29839;BME280;18669;53.356;-1.464;2023-06-10T05:15:25;100676.75;;;12.24;100.00
29839;BME280;18669;53.356;-1.464;2023-06-10T05:18:10;100668.09;;;12.19;100.00
29839;BME280;18669;53.356;-1.464;2023-06-10T05:20:56;100674.03;;;12.27;100.00
29839;BME280;18669;53.356;-1.464;2023-06-10T05:23:41;100668.69;;;12.30;100.00
29839;BME280;18669;53.356;-1.464;2023-06-10T05:26:27;100675.16;;;12.51;100.00
29839;BME280;18669;53.356;-1.464;2023-06-10T05:29:13;100685.66;;;12.53;100.00
29839;BME280;18669;53.356;-1.464;2023-06-10T05:31:59;100676.19;;;12.76;100.00
29839;BME280;18669;53.356;-1.464;2023-06-10T05:34:47;100678.72;;;12.80;100.00
29839;BME280;18669;53.356;-1.464;2023-06-10T05:37:34;100680.06;;;12.94;100.00
29839;BME280;18669;53.356;-1.464;2023-06-10T05:40:19;100674.09;;;12.89;100.00
29839;BME280;18669;53.356;-1.464;2023-06-10T05:43:04;100673.28;;;12.87;100.00
29839;BME280;18669;53.356;-1.464;2023-06-10T05:45:49;100672.66;;;13.07;100.00
29839;BME280;18669;53.356;-1.464;2023-06-10T05:48:34;100676.31;;;13.03;100.00
29839;BME280;18669;53.356;-1.464;2023-06-10T05:51:19;100689.56;;;13.01;100.00
29839;BME280;18669;53.356;-1.464;2023-06-10T05:54:04;100674.25;;;12.82;100.00
29839;BME280;18669;53.356;-1.464;2023-06-10T05:56:49;100670.56;;;12.88;100.00
29839;BME280;18669;53.356;-1.464;2023-06-10T05:59:34;100678.25;;;12.96;100.00
29839;BME280;18669;53.356;-1.464;2023-06-10T06:02:19;100675.41;;;13.04;100.00
29839;BME280;18669;53.356;-1.464;2023-06-10T06:05:04;100675.00;;;13.16;100.00
29839;BME280;18669;53.356;-1.464;2023-06-10T06:07:49;100674.91;;;13.19;100.00
29839;BME280;18669;53.356;-1.464;2023-06-10T06:10:34;100676.56;;;13.23;100.00
29839;BME280;18669;53.356;-1.464;2023-06-10T06:13:19;100688.31;;;13.43;100.00
29839;BME280;18669;53.356;-1.464;2023-06-10T06:16:03;100679.53;;;13.42;100.00
29839;BME280;18669;53.356;-1.464;2023-06-10T06:18:48;100680.09;;;13.52;100.00
29839;BME280;18669;53.356;-1.464;2023-06-10T06:21:33;100669.03;;;13.68;100.00
29839;BME280;18669;53.356;-1.464;2023-06-10T06:24:18;100678.50;;;13.75;100.00
29839;BME280;18669;53.356;-1.464;2023-06-10T06:27:03;100676.44;;;13.56;100.00
29839;BME280;18669;53.356;-1.464;2023-06-10T06:29:48;100665.56;;;13.66;100.00
29839;BME280;18669;53.356;-1.464;2023-06-10T06:32:33;100678.00;;;13.62;100.00
29839;BME280;18669;53.356;-1.464;2023-06-10T06:35:18;100682.44;;;13.88;100.00
29839;BME280;18669;53.356;-1.464;2023-06-10T06:38:03;100686.00;;;13.61;100.00
29839;BME280;18669;53.356;-1.464;2023-06-10T06:40:48;100676.16;;;13.66;100.00
29839;BME280;18669;53.356;-1.464;2023-06-10T06:43:33;100679.19;;;13.80;100.00
29839;BME280;18669;53.356;-1.464;2023-06-10T06:46:18;100674.00;;;14.04;100.00
29839;BME280;18669;53.356;-1.464;2023-06-10T06:49:03;100679.66;;;14.44;100.00
29839;BME280;18669;53.356;-1.464;2023-06-10T06:51:48;100672.44;;;14.73;100.00
29839;BME280;18669;53.356;-1.464;2023-06-10T06:54:32;100669.75;;;14.74;100.00
29839;BME280;18669;53.356;-1.464;2023-06-10T06:57:17;100672.22;;;14.54;100.00
29839;BME280;18669;53.356;-1.464;2023-06-10T07:00:03;100676.03;;;14.72;100.00
29839;BME280;18669;53.356;-1.464;2023-06-10T07:02:48;100680.13;;;15.04;100.00
29839;BME280;18669;53.356;-1.464;2023-06-10T07:05:34;100680.84;;;15.08;100.00
29839;BME280;18669;53.356;-1.464;2023-06-10T07:08:18;100664.78;;;15.13;100.00
29839;BME280;18669;53.356;-1.464;2023-06-10T07:11:03;100676.44;;;15.31;100.00
29839;BME280;18669;53.356;-1.464;2023-06-10T07:13:48;100675.22;;;15.40;100.00
29839;BME280;18669;53.356;-1.464;2023-06-10T07:16:33;100663.81;;;15.60;100.00
29839;BME280;18669;53.356;-1.464;2023-06-10T07:19:18;100664.28;;;15.47;100.00
29839;BME280;18669;53.356;-1.464;2023-06-10T07:22:03;100678.97;;;15.34;100.00
29839;BME280;18669;53.356;-1.464;2023-06-10T07:24:48;100684.25;;;14.88;100.00
29839;BME280;18669;53.356;-1.464;2023-06-10T07:27:33;100682.72;;;14.82;100.00
29839;BME280;18669;53.356;-1.464;2023-06-10T07:30:18;100680.41;;;15.19;100.00
29839;BME280;18669;53.356;-1.464;2023-06-10T07:33:02;100677.88;;;15.40;100.00
29839;BME280;18669;53.356;-1.464;2023-06-10T07:35:47;100671.94;;;15.33;100.00
29839;BME280;18669;53.356;-1.464;2023-06-10T07:38:32;100673.94;;;15.50;100.00
29839;BME280;18669;53.356;-1.464;2023-06-10T07:41:18;100671.44;;;15.68;100.00
29839;BME280;18669;53.356;-1.464;2023-06-10T07:44:04;100665.19;;;15.91;100.00
29839;BME280;18669;53.356;-1.464;2023-06-10T07:46:48;100663.88;;;16.01;100.00
29839;BME280;18669;53.356;-1.464;2023-06-10T07:49:33;100671.06;;;15.99;100.00
29839;BME280;18669;53.356;-1.464;2023-06-10T07:52:18;100667.84;;;16.32;100.00
29839;BME280;18669;53.356;-1.464;2023-06-10T07:55:04;100665.16;;;16.53;100.00
29839;BME280;18669;53.356;-1.464;2023-06-10T07:57:48;100672.59;;;16.65;100.00
29839;BME280;18669;53.356;-1.464;2023-06-10T08:00:33;100667.34;;;16.83;100.00
29839;BME280;18669;53.356;-1.464;2023-06-10T08:03:18;100655.53;;;17.09;100.00
29839;BME280;18669;53.356;-1.464;2023-06-10T08:06:03;100658.13;;;17.48;100.00
29839;BME280;18669;53.356;-1.464;2023-06-10T08:08:48;100660.00;;;18.00;100.00
29839;BME280;18669;53.356;-1.464;2023-06-10T08:11:33;100659.31;;;18.47;100.00
29839;BME280;18669;53.356;-1.464;2023-06-10T08:14:18;100652.50;;;18.91;97.03
29839;BME280;18669;53.356;-1.464;2023-06-10T08:17:03;100663.59;;;19.64;93.70
29839;BME280;18669;53.356;-1.464;2023-06-10T08:19:50;100656.97;;;19.86;85.40
29839;BME280;18669;53.356;-1.464;2023-06-10T08:22:35;100661.88;;;20.53;80.24
29839;BME280;18669;53.356;-1.464;2023-06-10T08:25:20;100649.19;;;20.27;76.44
29839;BME280;18669;53.356;-1.464;2023-06-10T08:28:06;100648.44;;;20.25;74.08
29839;BME280;18669;53.356;-1.464;2023-06-10T08:30:51;100652.13;;;20.23;74.85
29839;BME280;18669;53.356;-1.464;2023-06-10T08:33:36;100652.91;;;20.97;76.92
29839;BME280;18669;53.356;-1.464;2023-06-10T08:36:21;100642.53;;;21.48;67.60
29839;BME280;18669;53.356;-1.464;2023-06-10T08:39:05;100644.56;;;21.16;67.29
29839;BME280;18669;53.356;-1.464;2023-06-10T08:45:02;100639.94;;;22.53;64.82
29839;BME280;18669;53.356;-1.464;2023-06-10T08:47:49;100628.75;;;23.09;61.58
29839;BME280;18669;53.356;-1.464;2023-06-10T08:50:37;100632.47;;;23.44;57.33
29839;BME280;18669;53.356;-1.464;2023-06-10T08:53:22;100631.84;;;23.76;57.61
29839;BME280;18669;53.356;-1.464;2023-06-10T08:56:07;100628.44;;;24.55;53.74
29839;BME280;18669;53.356;-1.464;2023-06-10T08:58:54;100626.28;;;23.54;54.39
29839;BME280;18669;53.356;-1.464;2023-06-10T09:01:41;100625.75;;;23.38;56.83
29839;BME280;18669;53.356;-1.464;2023-06-10T09:04:26;100631.56;;;23.56;55.59
29839;BME280;18669;53.356;-1.464;2023-06-10T09:07:12;100621.44;;;23.11;57.07
29839;BME280;18669;53.356;-1.464;2023-06-10T09:09:58;100625.34;;;23.18;57.19
29839;BME280;18669;53.356;-1.464;2023-06-10T09:12:45;100616.31;;;23.08;56.84
29839;BME280;18669;53.356;-1.464;2023-06-10T09:15:30;100615.81;;;23.63;58.44
29839;BME280;18669;53.356;-1.464;2023-06-10T09:18:15;100615.28;;;24.52;54.82
29839;BME280;18669;53.356;-1.464;2023-06-10T09:20:59;100616.59;;;24.92;51.49
29839;BME280;18669;53.356;-1.464;2023-06-10T09:23:45;100611.72;;;25.62;51.33
29839;BME280;18669;53.356;-1.464;2023-06-10T09:26:30;100613.44;;;25.63;50.52
29839;BME280;18669;53.356;-1.464;2023-06-10T09:29:15;100611.59;;;26.06;48.13
29839;BME280;18669;53.356;-1.464;2023-06-10T09:32:00;100613.31;;;26.38;49.50
29839;BME280;18669;53.356;-1.464;2023-06-10T09:34:46;100607.88;;;27.39;48.15
29839;BME280;18669;53.356;-1.464;2023-06-10T09:37:31;100602.00;;;28.03;44.82
29839;BME280;18669;53.356;-1.464;2023-06-10T09:40:16;100601.13;;;28.88;43.36
29839;BME280;18669;53.356;-1.464;2023-06-10T09:43:01;100595.44;;;29.27;42.35
29839;BME280;18669;53.356;-1.464;2023-06-10T09:45:50;100602.78;;;28.61;42.77
29839;BME280;18669;53.356;-1.464;2023-06-10T09:48:42;100599.53;;;28.57;42.46
29839;BME280;18669;53.356;-1.464;2023-06-10T09:51:27;100595.69;;;28.60;43.01
29839;BME280;18669;53.356;-1.464;2023-06-10T09:54:12;100596.63;;;27.93;42.79
29839;BME280;18669;53.356;-1.464;2023-06-10T09:56:57;100594.41;;;28.26;43.67
29839;BME280;18669;53.356;-1.464;2023-06-10T09:59:45;100594.56;;;27.67;44.36
29839;BME280;18669;53.356;-1.464;2023-06-10T10:02:29;100589.75;;;28.09;43.04
29839;BME280;18669;53.356;-1.464;2023-06-10T10:05:19;100591.13;;;27.55;44.53
29839;BME280;18669;53.356;-1.464;2023-06-10T10:08:04;100589.91;;;26.79;45.65
29839;BME280;18669;53.356;-1.464;2023-06-10T10:10:49;100587.13;;;27.01;46.07
29839;BME280;18669;53.356;-1.464;2023-06-10T10:13:34;100588.22;;;27.96;45.02
29839;BME280;18669;53.356;-1.464;2023-06-10T10:16:37;100580.31;;;29.61;40.95
29839;BME280;18669;53.356;-1.464;2023-06-10T10:19:31;100580.50;;;29.68;41.94
29839;BME280;18669;53.356;-1.464;2023-06-10T10:22:37;100571.97;;;29.00;41.72
29839;BME280;18669;53.356;-1.464;2023-06-10T10:25:27;100576.34;;;28.83;41.65
29839;BME280;18669;53.356;-1.464;2023-06-10T10:28:15;100574.06;;;29.24;43.05
29839;BME280;18669;53.356;-1.464;2023-06-10T10:31:08;100581.78;;;29.19;41.40
29839;BME280;18669;53.356;-1.464;2023-06-10T10:33:58;100578.97;;;29.65;41.82
29839;BME280;18669;53.356;-1.464;2023-06-10T10:36:44;100583.66;;;29.81;40.80
29839;BME280;18669;53.356;-1.464;2023-06-10T10:39:30;100575.88;;;30.39;40.44
29839;BME280;18669;53.356;-1.464;2023-06-10T10:42:16;100578.16;;;31.53;38.53
29839;BME280;18669;53.356;-1.464;2023-06-10T10:45:02;100574.41;;;31.87;37.82
29839;BME280;18669;53.356;-1.464;2023-06-10T10:47:52;100575.97;;;31.48;38.07
29839;BME280;18669;53.356;-1.464;2023-06-10T10:50:37;100574.25;;;31.89;37.32
29839;BME280;18669;53.356;-1.464;2023-06-10T10:53:21;100577.16;;;32.83;37.10
29839;BME280;18669;53.356;-1.464;2023-06-10T10:56:09;100565.84;;;33.41;35.36
29839;BME280;18669;53.356;-1.464;2023-06-10T10:59:04;100559.66;;;33.01;35.02
29839;BME280;18669;53.356;-1.464;2023-06-10T11:01:49;100571.50;;;31.06;38.49
29839;BME280;18669;53.356;-1.464;2023-06-10T11:04:34;100563.06;;;31.75;38.34
29839;BME280;18669;53.356;-1.464;2023-06-10T11:07:24;100560.00;;;32.35;37.17
29839;BME280;18669;53.356;-1.464;2023-06-10T11:10:10;100555.25;;;32.37;36.85
29839;BME280;18669;53.356;-1.464;2023-06-10T11:12:56;100558.06;;;33.07;35.92
29839;BME280;18669;53.356;-1.464;2023-06-10T11:15:49;100550.22;;;34.18;34.33
29839;BME280;18669;53.356;-1.464;2023-06-10T11:18:40;100552.03;;;33.96;34.81
29839;BME280;18669;53.356;-1.464;2023-06-10T11:21:25;100557.97;;;34.00;34.12
29839;BME280;18669;53.356;-1.464;2023-06-10T11:24:13;100552.56;;;34.36;34.68
29839;BME280;18669;53.356;-1.464;2023-06-10T11:27:21;100540.50;;;34.83;33.47
29839;BME280;18669;53.356;-1.464;2023-06-10T11:32:52;100544.53;;;35.80;32.58
29839;BME280;18669;53.356;-1.464;2023-06-10T11:35:37;100548.41;;;34.41;33.70
29839;BME280;18669;53.356;-1.464;2023-06-10T11:38:22;100539.72;;;35.54;33.31
29839;BME280;18669;53.356;-1.464;2023-06-10T11:41:07;100544.78;;;35.86;32.41
29839;BME280;18669;53.356;-1.464;2023-06-10T11:43:53;100545.69;;;36.41;31.35
29839;BME280;18669;53.356;-1.464;2023-06-10T11:46:40;100534.38;;;35.46;31.98
29839;BME280;18669;53.356;-1.464;2023-06-10T11:49:26;100532.53;;;35.53;33.06
29839;BME280;18669;53.356;-1.464;2023-06-10T11:52:11;100540.13;;;36.70;31.88
29839;BME280;18669;53.356;-1.464;2023-06-10T11:54:56;100541.75;;;36.57;31.57
29839;BME280;18669;53.356;-1.464;2023-06-10T11:57:41;100532.19;;;37.29;30.86
29839;BME280;18669;53.356;-1.464;2023-06-10T12:00:26;100517.44;;;37.57;30.57
29839;BME280;18669;53.356;-1.464;2023-06-10T12:03:11;100528.09;;;38.05;29.93
29839;BME280;18669;53.356;-1.464;2023-06-10T12:06:01;100523.75;;;37.30;30.11
29839;BME280;18669;53.356;-1.464;2023-06-10T12:08:45;100519.44;;;36.54;31.31
29839;BME280;18669;53.356;-1.464;2023-06-10T12:11:31;100511.75;;;37.05;31.35
29839;BME280;18669;53.356;-1.464;2023-06-10T12:14:16;100507.72;;;37.61;30.46
29839;BME280;18669;53.356;-1.464;2023-06-10T12:17:02;100520.59;;;37.60;30.43
29839;BME280;18669;53.356;-1.464;2023-06-10T12:19:47;100510.47;;;37.41;30.07
29839;BME280;18669;53.356;-1.464;2023-06-10T12:22:41;100518.03;;;37.72;30.35
29839;BME280;18669;53.356;-1.464;2023-06-10T12:25:27;100501.81;;;37.57;30.44
29839;BME280;18669;53.356;-1.464;2023-06-10T12:28:13;100502.38;;;36.65;31.26
29839;BME280;18669;53.356;-1.464;2023-06-10T12:31:07;100505.84;;;37.14;31.51
29839;BME280;18669;53.356;-1.464;2023-06-10T12:34:07;100501.97;;;37.83;30.48
29839;BME280;18669;53.356;-1.464;2023-06-10T12:36:52;100496.09;;;38.70;29.81
29839;BME280;18669;53.356;-1.464;2023-06-10T12:39:37;100495.22;;;38.70;29.71
29839;BME280;18669;53.356;-1.464;2023-06-10T12:42:22;100494.34;;;38.76;28.44
29839;BME280;18669;53.356;-1.464;2023-06-10T12:45:08;100484.53;;;38.55;29.27
29839;BME280;18669;53.356;-1.464;2023-06-10T12:48:07;100478.50;;;39.29;28.42
29839;BME280;18669;53.356;-1.464;2023-06-10T12:50:57;100478.63;;;40.15;27.79
29839;BME280;18669;53.356;-1.464;2023-06-10T12:53:43;100495.56;;;40.49;27.14
29839;BME280;18669;53.356;-1.464;2023-06-10T12:56:27;100483.19;;;40.70;27.08
29839;BME280;18669;53.356;-1.464;2023-06-10T12:59:12;100477.88;;;40.26;27.04
29839;BME280;18669;53.356;-1.464;2023-06-10T13:01:57;100465.94;;;40.75;27.28
29839;BME280;18669;53.356;-1.464;2023-06-10T13:04:46;100455.91;;;41.16;26.49
29839;BME280;18669;53.356;-1.464;2023-06-10T13:07:31;100453.59;;;40.90;26.46
29839;BME280;18669;53.356;-1.464;2023-06-10T13:10:16;100449.66;;;41.21;26.55
29839;BME280;18669;53.356;-1.464;2023-06-10T13:13:02;100450.34;;;41.76;26.15
29839;BME280;18669;53.356;-1.464;2023-06-10T13:15:50;100441.75;;;41.89;25.87
29839;BME280;18669;53.356;-1.464;2023-06-10T13:18:34;100439.28;;;42.17;25.47
29839;BME280;18669;53.356;-1.464;2023-06-10T13:21:22;100435.78;;;41.81;25.78
29839;BME280;18669;53.356;-1.464;2023-06-10T13:24:06;100437.56;;;41.87;25.45
29839;BME280;18669;53.356;-1.464;2023-06-10T13:26:51;100436.91;;;42.09;25.24
29839;BME280;18669;53.356;-1.464;2023-06-10T13:29:36;100435.94;;;42.61;24.73
29839;BME280;18669;53.356;-1.464;2023-06-10T13:32:22;100437.03;;;42.94;23.89
29839;BME280;18669;53.356;-1.464;2023-06-10T13:35:07;100434.13;;;42.84;23.53
29839;BME280;18669;53.356;-1.464;2023-06-10T13:37:52;100420.75;;;41.88;25.15
29839;BME280;18669;53.356;-1.464;2023-06-10T13:40:37;100424.19;;;42.08;25.02
29839;BME280;18669;53.356;-1.464;2023-06-10T13:43:22;100421.03;;;42.16;24.91
29839;BME280;18669;53.356;-1.464;2023-06-10T13:46:06;100413.97;;;42.54;25.17
29839;BME280;18669;53.356;-1.464;2023-06-10T13:48:51;100415.50;;;42.96;24.08
29839;BME280;18669;53.356;-1.464;2023-06-10T13:51:36;100403.72;;;43.45;23.89
29839;BME280;18669;53.356;-1.464;2023-06-10T13:54:21;100403.66;;;43.62;23.07
29839;BME280;18669;53.356;-1.464;2023-06-10T13:57:06;100394.91;;;43.48;23.88
29839;BME280;18669;53.356;-1.464;2023-06-10T13:59:51;100400.66;;;43.86;23.28
29839;BME280;18669;53.356;-1.464;2023-06-10T14:02:36;100400.56;;;44.31;23.06
29839;BME280;18669;53.356;-1.464;2023-06-10T14:05:21;100396.06;;;44.57;22.21
29839;BME280;18669;53.356;-1.464;2023-06-10T14:08:06;100384.31;;;44.45;21.88
29839;BME280;18669;53.356;-1.464;2023-06-10T14:10:51;100381.00;;;44.80;22.63
29839;BME280;18669;53.356;-1.464;2023-06-10T14:13:36;100382.06;;;45.22;21.21
29839;BME280;18669;53.356;-1.464;2023-06-10T14:16:23;100384.91;;;44.84;22.12
29839;BME280;18669;53.356;-1.464;2023-06-10T14:19:09;100378.91;;;44.98;20.89
29839;BME280;18669;53.356;-1.464;2023-06-10T14:21:54;100375.19;;;43.89;21.98
29839;BME280;18669;53.356;-1.464;2023-06-10T14:24:39;100379.78;;;44.33;22.01